Terminal Aerodrome Forecast
Issued by NWS Lake Charles, LA

Home | Current Version | Previous Version | Text Only | Print | Product List | Glossary On
Versions: 1 2 3 4 5 6 7 8 9 10 11 12 13 14 15
056
FTUS44 KLCH 270130 AAA
TAFAEX
TAF AMD
KAEX 270130Z 2702/2724 29015KT P6SM VCSH BKN060 OVC100
     FM270800 33010KT P6SM FEW250
     FM271200 03006KT P6SM SKC
     FM271500 09005KT P6SM SKC
     FM272100 13006KT P6SM SKC=

USA.gov is the U.S. government's official web portal to all federal, state and local government web resources and services.